createdAt,value
2024-05-09T00:01:08.259Z,96780.97
2024-05-09T00:03:38.556Z,96775.88
2024-05-09T00:06:12.815Z,96773.03
2024-05-09T00:08:42.949Z,96774.22
2024-05-09T00:11:13.270Z,96772.81
2024-05-09T00:13:43.463Z,96774.66
2024-05-09T00:16:13.638Z,96781.19
2024-05-09T00:18:43.880Z,96772.25
2024-05-09T00:21:16.856Z,96770.00
2024-05-09T00:23:47.316Z,96774.72
2024-05-09T00:26:19.185Z,96774.31
2024-05-09T00:28:49.382Z,96774.91
2024-05-09T00:31:19.557Z,96767.19
2024-05-09T00:33:49.827Z,96773.31
2024-05-09T00:36:22.737Z,96771.06
2024-05-09T00:38:53.231Z,96769.44
2024-05-09T00:41:23.369Z,96761.88
2024-05-09T00:43:53.632Z,96768.22
2024-05-09T00:46:23.717Z,96764.38
2024-05-09T00:48:53.922Z,96771.91
2024-05-09T00:51:26.762Z,96765.78
2024-05-09T00:53:56.880Z,96768.03
2024-05-09T00:56:27.141Z,96771.50
2024-05-09T00:58:57.413Z,96767.44
2024-05-09T01:01:27.902Z,96772.31
2024-05-09T01:03:58.197Z,96772.94
2024-05-09T01:06:31.436Z,96781.91
2024-05-09T01:09:01.521Z,96778.66
2024-05-09T01:11:36.710Z,96770.72
2024-05-09T01:14:06.906Z,96776.41
2024-05-09T01:16:37.056Z,96778.22
2024-05-09T01:19:07.833Z,96773.53
2024-05-09T01:21:43.263Z,96771.53
2024-05-09T01:24:16.064Z,96771.94
2024-05-09T01:26:46.166Z,96768.47
2024-05-09T01:29:16.436Z,96764.38
2024-05-09T01:31:48.069Z,96768.88
2024-05-09T01:34:18.684Z,96772.31
2024-05-09T01:36:48.808Z,96778.22
2024-05-09T01:39:21.727Z,96767.84
2024-05-09T01:41:51.816Z,96777.44
2024-05-09T01:44:21.969Z,96776.00
2024-05-09T01:46:52.525Z,96774.38
2024-05-09T01:49:22.831Z,96782.31
2024-05-09T01:51:53.048Z,96776.00
2024-05-09T01:54:25.811Z,96773.75
2024-05-09T01:56:56.170Z,96773.13
2024-05-09T01:59:26.464Z,96779.25
2024-05-09T02:01:57.906Z,96776.78
2024-05-09T02:04:28.415Z,96781.09
2024-05-09T02:06:58.570Z,96780.47
2024-05-09T02:09:31.328Z,96779.44
2024-05-09T02:12:01.582Z,96773.53
2024-05-09T02:14:32.335Z,96776.38
2024-05-09T02:17:02.539Z,96777.59
2024-05-09T02:19:33.002Z,96768.25
2024-05-09T02:22:03.214Z,96774.56
2024-05-09T02:24:35.973Z,96777.78
2024-05-09T02:27:06.674Z,96779.81
2024-05-09T02:29:37.621Z,96785.34
2024-05-09T02:32:08.582Z,96776.34
2024-05-09T02:34:39.069Z,96780.81
2024-05-09T02:37:09.203Z,96781.25
2024-05-09T02:39:39.312Z,96775.34
2024-05-09T02:42:09.427Z,96778.81
2024-05-09T02:44:36.981Z,96773.91
2024-05-09T02:47:07.601Z,96769.03
2024-05-09T02:49:35.253Z,96774.53
2024-05-09T02:52:05.518Z,96770.63
2024-05-09T02:54:32.961Z,96772.25
2024-05-09T02:57:05.818Z,96765.53
2024-05-09T02:59:33.466Z,96780.00
2024-05-09T03:02:03.705Z,96776.94
2024-05-09T03:04:31.486Z,96779.56
2024-05-09T03:07:01.746Z,96776.31
2024-05-09T03:09:29.366Z,96776.69
2024-05-09T03:11:59.658Z,96772.44
2024-05-09T03:14:30.018Z,96773.03
2024-05-09T03:17:00.265Z,96777.88
2024-05-09T03:19:27.807Z,96777.88
2024-05-09T03:21:58.383Z,96777.47
2024-05-09T03:24:25.816Z,96773.84
2024-05-09T03:26:56.031Z,96776.47
2024-05-09T03:29:23.618Z,96776.66
2024-05-09T03:31:56.491Z,96767.28
2024-05-09T03:34:23.997Z,96765.66
2024-05-09T03:36:54.196Z,96764.84
2024-05-09T03:39:24.325Z,96758.56
2024-05-09T03:41:54.444Z,96761.81
2024-05-09T03:44:24.662Z,96752.88
2024-05-09T03:46:55.771Z,96754.50
2024-05-09T03:49:26.246Z,96757.97
2024-05-09T03:51:53.869Z,96756.13
2024-05-09T03:54:24.902Z,96763.84
2024-05-09T03:56:52.761Z,96761.81
2024-05-09T03:59:22.923Z,96762.25
2024-05-09T04:01:50.629Z,96754.75
2024-05-09T04:04:24.463Z,96755.78
2024-05-09T04:06:51.959Z,96756.78
2024-05-09T04:09:22.090Z,96762.69
2024-05-09T04:11:49.716Z,96762.31
2024-05-09T04:14:20.394Z,96770.63
2024-05-09T04:16:48.027Z,96774.31
2024-05-09T04:19:18.597Z,96756.81
2024-05-09T04:21:48.850Z,96762.72
2024-05-09T04:24:19.009Z,96762.72
2024-05-09T04:26:46.573Z,96766.81
2024-05-09T04:29:16.759Z,96762.97
2024-05-09T04:31:44.629Z,96763.97
2024-05-09T04:34:14.940Z,96768.44
2024-05-09T04:36:44.449Z,96760.72
2024-05-09T04:39:17.584Z,96769.69
2024-05-09T04:41:45.066Z,96776.59
2024-05-09T04:44:15.339Z,96767.84
2024-05-09T04:46:43.858Z,96770.28
2024-05-09T04:49:14.244Z,96765.78
2024-05-09T04:51:41.989Z,96773.31
2024-05-09T04:54:22.226Z,96775.53
2024-05-09T04:57:00.225Z,96767.97
2024-05-09T04:59:30.841Z,96765.69
2024-05-09T05:01:58.458Z,96771.38
2024-05-09T05:04:28.681Z,96775.22
2024-05-09T05:06:57.726Z,96769.06
2024-05-09T05:09:29.121Z,96768.97
2024-05-09T05:11:56.708Z,96774.03
2024-05-09T05:14:30.204Z,96769.22
2024-05-09T05:17:00.356Z,96771.59
2024-05-09T05:19:28.131Z,96766.41
2024-05-09T05:21:58.280Z,96766.53
2024-05-09T05:24:25.701Z,96764.03
2024-05-09T05:26:55.767Z,96760.44
2024-05-09T05:29:23.648Z,96766.03
2024-05-09T05:31:56.539Z,96756.88
2024-05-09T05:34:24.110Z,96748.34
2024-05-09T05:36:54.263Z,96749.38
2024-05-09T05:39:21.712Z,96762.47
2024-05-09T05:41:52.274Z,96750.97
2024-05-09T05:44:19.763Z,96742.88
2024-05-09T05:46:51.030Z,96744.69
2024-05-09T05:49:21.375Z,96737.66
2024-05-09T05:51:51.597Z,96731.44
2024-05-09T05:54:19.035Z,96745.84
2024-05-09T05:56:49.527Z,96759.06
2024-05-09T05:59:17.077Z,96752.38
2024-05-09T06:01:47.782Z,96751.75
2024-05-09T06:04:15.411Z,96758.09
2024-05-09T06:06:48.299Z,96761.06
2024-05-09T06:09:16.236Z,96755.41
2024-05-09T06:11:46.501Z,96753.78
2024-05-09T06:14:14.179Z,96757.75
2024-05-09T06:16:44.365Z,96766.13
2024-05-09T06:19:12.088Z,96766.06
2024-05-09T06:21:42.315Z,96781.88
2024-05-09T06:24:12.370Z,96779.19
2024-05-09T06:26:44.851Z,96784.19
2024-05-09T06:29:14.211Z,96784.66
2024-05-09T06:31:46.439Z,96782.84
2024-05-09T06:34:13.948Z,96795.38
2024-05-09T06:36:44.626Z,96796.56
2024-05-09T06:39:14.768Z,96795.63
2024-05-09T06:41:44.953Z,96798.72
2024-05-09T06:44:12.403Z,96802.47
2024-05-09T06:46:42.621Z,96802.59
2024-05-09T06:49:11.704Z,96807.38
2024-05-09T06:51:42.971Z,96808.63
2024-05-09T06:54:10.456Z,96816.50
2024-05-09T06:56:43.246Z,96811.09
2024-05-09T06:59:10.821Z,96814.72
2024-05-09T07:01:40.977Z,96819.72
2024-05-09T07:04:09.101Z,96830.72
2024-05-09T07:06:39.384Z,96831.88
2024-05-09T07:09:06.865Z,96832.06
2024-05-09T07:11:38.250Z,96828.75
2024-05-09T07:14:08.426Z,96832.69
2024-05-09T07:16:38.573Z,96835.75
2024-05-09T07:19:07.035Z,96832.56
2024-05-09T07:21:37.243Z,96842.19
2024-05-09T07:24:05.315Z,96842.81
2024-05-09T07:26:35.481Z,96848.75
2024-05-09T07:29:03.034Z,96847.22
2024-05-09T07:31:36.115Z,96841.91
2024-05-09T07:34:03.761Z,96835.75
2024-05-09T07:36:33.996Z,96841.16
2024-05-09T07:39:01.458Z,96853.88
2024-05-09T07:41:31.838Z,96846.06
2024-05-09T07:43:59.510Z,96852.25
2024-05-09T07:47:36.961Z,96848.19
2024-05-09T07:53:21.122Z,96836.25
2024-05-09T07:54:40.795Z,96832.97
2024-05-09T07:57:11.069Z,96832.44
2024-05-09T07:59:39.212Z,96827.53
2024-05-09T08:02:09.788Z,96828.91
2024-05-09T08:04:40.107Z,96837.19
2024-05-09T08:07:10.361Z,96832.59
2024-05-09T08:09:39.991Z,96829.31
2024-05-09T08:12:12.915Z,96838.78
2024-05-09T08:14:40.352Z,96839.56
2024-05-09T08:17:12.258Z,96837.56
2024-05-09T08:19:42.707Z,96837.34
2024-05-09T08:22:12.941Z,96844.69
2024-05-09T08:24:40.408Z,96834.16
2024-05-09T08:27:10.899Z,96838.44
2024-05-09T08:29:38.406Z,96838.16
2024-05-09T08:32:12.684Z,96833.25
2024-05-09T08:34:43.125Z,96837.03
2024-05-09T08:37:21.162Z,96842.38
2024-05-09T08:39:51.086Z,96837.16
2024-05-09T08:42:21.344Z,96841.63
2024-05-09T08:44:48.895Z,96836.91
2024-05-09T08:47:19.104Z,96842.66
2024-05-09T08:49:49.343Z,96840.75
2024-05-09T08:52:19.643Z,96839.47
2024-05-09T08:54:47.524Z,96843.88
2024-05-09T08:57:17.767Z,96846.28
2024-05-09T08:59:47.535Z,96848.47
2024-05-09T09:02:17.795Z,96850.09
2024-05-09T09:04:51.573Z,96844.41
2024-05-09T09:07:22.362Z,96837.88
2024-05-09T09:09:50.343Z,96845.53
2024-05-09T09:12:22.052Z,96841.53
2024-05-09T09:14:49.511Z,96847.75
2024-05-09T09:17:19.964Z,96847.09
2024-05-09T09:19:50.156Z,96844.31
2024-05-09T09:22:21.782Z,96844.38
2024-05-09T09:24:49.473Z,96842.09
2024-05-09T09:27:19.561Z,96844.19
2024-05-09T09:29:47.084Z,96844.75
2024-05-09T09:32:17.211Z,96839.88
2024-05-09T09:34:45.157Z,96836.28
2024-05-09T09:37:18.082Z,96841.38
2024-05-09T09:39:48.866Z,96843.59
2024-05-09T09:42:19.513Z,96843.09
2024-05-09T09:44:54.604Z,96841.59
2024-05-09T09:47:31.767Z,96848.91
2024-05-09T09:49:59.771Z,96852.06
2024-05-09T09:52:32.710Z,96840.84
2024-05-09T09:55:00.228Z,96843.56
2024-05-09T09:57:30.691Z,96845.06
2024-05-09T09:59:58.249Z,96843.84
2024-05-09T10:02:28.813Z,96834.78
2024-05-09T10:04:56.444Z,96841.59
2024-05-09T10:07:27.701Z,96833.38
2024-05-09T10:09:58.310Z,96839.44
2024-05-09T10:12:28.441Z,96838.50
2024-05-09T10:14:56.763Z,96830.47
2024-05-09T10:17:27.006Z,96836.72
2024-05-09T10:20:11.820Z,96839.31
2024-05-09T10:22:51.426Z,96840.91
2024-05-09T10:25:23.750Z,96837.69
2024-05-09T10:27:57.902Z,96836.38
2024-05-09T10:30:33.837Z,96834.13
2024-05-09T10:33:06.297Z,96835.09
2024-05-09T10:35:33.893Z,96831.44
2024-05-09T10:38:09.009Z,96828.84
2024-05-09T10:40:39.392Z,96829.19
2024-05-09T10:43:09.544Z,96826.16
2024-05-09T10:45:37.092Z,96829.81
2024-05-09T10:48:07.827Z,96826.78
2024-05-09T10:50:35.432Z,96827.56
2024-05-09T10:53:05.932Z,96826.88
2024-05-09T10:55:34.831Z,96825.41
2024-05-09T10:58:07.964Z,96821.22
2024-05-09T11:00:36.904Z,96821.16
2024-05-09T11:03:07.627Z,96820.69
2024-05-09T11:05:35.421Z,96823.25
2024-05-09T11:08:05.618Z,96808.16
2024-05-09T11:10:34.428Z,96803.50
2024-05-09T11:13:07.977Z,96805.75
2024-05-09T11:15:39.555Z,96808.47
2024-05-09T11:18:09.901Z,96793.88
2024-05-09T11:20:37.601Z,96794.03
2024-05-09T11:23:08.537Z,96795.16
2024-05-09T11:25:37.182Z,96786.00
2024-05-09T11:28:10.532Z,96784.56
2024-05-09T11:30:38.037Z,96783.91
2024-05-09T11:33:08.770Z,96789.28
2024-05-09T11:35:36.223Z,96778.31
2024-05-09T11:38:07.068Z,96775.06
2024-05-09T11:40:34.910Z,96767.72
2024-05-09T11:43:05.190Z,96768.19
2024-05-09T11:45:35.507Z,96773.75
2024-05-09T11:48:06.790Z,96766.16
2024-05-09T11:50:37.664Z,96766.78
2024-05-09T11:53:05.490Z,96767.00
2024-05-09T11:55:36.862Z,96766.09
2024-05-09T11:58:05.382Z,96778.00
2024-05-09T12:00:38.342Z,96767.69
2024-05-09T12:03:06.440Z,96765.78
2024-05-09T12:05:36.816Z,96759.03
2024-05-09T12:08:04.792Z,96750.81
2024-05-09T12:10:36.330Z,96753.97
2024-05-09T12:13:06.426Z,96751.09
2024-05-09T12:15:40.989Z,96742.81
2024-05-09T12:18:09.098Z,96745.66
2024-05-09T12:20:40.293Z,96747.91
2024-05-09T12:23:09.972Z,96744.31
2024-05-09T12:25:40.768Z,96741.09
2024-05-09T12:28:08.396Z,96746.00
2024-05-09T12:30:41.945Z,96737.84
2024-05-09T12:33:10.788Z,96751.75
2024-05-09T12:35:44.295Z,96737.59
2024-05-09T12:38:14.674Z,96735.69
2024-05-09T12:40:45.251Z,96719.13
2024-05-09T12:43:13.215Z,96721.50
2024-05-09T12:45:46.078Z,96723.13
2024-05-09T12:48:13.676Z,96726.25
2024-05-09T12:50:44.123Z,96721.72
2024-05-09T12:53:11.754Z,96724.69
2024-05-09T12:55:48.977Z,96719.47
2024-05-09T12:58:24.669Z,96722.22
2024-05-09T13:00:57.604Z,96718.50
2024-05-09T13:03:25.264Z,96720.97
2024-05-09T13:05:55.447Z,96717.19
2024-05-09T13:08:22.931Z,96718.38
2024-05-09T13:10:53.222Z,96716.47
2024-05-09T13:13:21.140Z,96713.38
2024-05-09T13:15:51.310Z,96712.34
2024-05-09T13:18:21.458Z,96702.84
2024-05-09T13:20:51.585Z,96700.28
2024-05-09T13:23:19.006Z,96698.91
2024-05-09T13:25:49.459Z,96696.47
2024-05-09T13:28:17.119Z,96691.41
2024-05-09T13:30:47.437Z,96683.47
2024-05-09T13:33:15.142Z,96694.44
2024-05-09T13:35:50.554Z,96694.59
2024-05-09T13:38:19.252Z,96685.38
2024-05-09T13:40:50.420Z,96686.56
2024-05-09T13:43:18.684Z,96678.97
2024-05-09T13:45:49.020Z,96678.78
2024-05-09T13:48:16.665Z,96682.34
2024-05-09T13:50:49.449Z,96679.66
2024-05-09T13:53:18.309Z,96673.44
2024-05-09T13:55:48.426Z,96671.84
2024-05-09T13:58:15.961Z,96673.97
2024-05-09T14:00:48.845Z,96665.72
2024-05-09T14:03:18.786Z,96665.47
2024-05-09T14:05:53.407Z,96656.38
2024-05-09T14:08:22.546Z,96659.56
2024-05-09T14:10:53.885Z,96661.22
2024-05-09T14:13:21.833Z,96661.69
2024-05-09T14:15:52.239Z,96651.91
2024-05-09T14:18:19.906Z,96657.38
2024-05-09T14:20:53.068Z,96657.72
2024-05-09T14:23:20.553Z,96649.94
2024-05-09T14:25:53.152Z,96644.22
2024-05-09T14:28:21.265Z,96652.59
2024-05-09T14:30:51.553Z,96641.47
2024-05-09T14:33:25.547Z,96636.88
2024-05-09T14:35:59.677Z,96633.44
2024-05-09T14:38:27.435Z,96633.59
2024-05-09T14:40:57.642Z,96640.97
2024-05-09T14:43:25.386Z,96633.31
2024-05-09T14:45:56.124Z,96630.69
2024-05-09T14:48:24.259Z,96632.88
2024-05-09T14:50:54.682Z,96622.09
2024-05-09T14:53:26.668Z,96628.50
2024-05-09T14:55:59.540Z,96614.38
2024-05-09T14:58:27.043Z,96614.56
2024-05-09T15:00:57.738Z,96602.69
2024-05-09T15:03:25.280Z,96614.13
2024-05-09T15:05:55.764Z,96617.28
2024-05-09T15:08:25.984Z,96610.25
2024-05-09T15:10:56.280Z,96599.72
2024-05-09T15:13:25.107Z,96607.13
2024-05-09T15:15:56.118Z,96613.69
2024-05-09T15:18:23.842Z,96606.28
2024-05-09T15:20:54.013Z,96595.97
2024-05-09T15:23:21.438Z,96600.28
2024-05-09T15:25:54.275Z,96598.06
2024-05-09T15:28:22.192Z,96598.84
2024-05-09T15:30:52.441Z,96597.28
2024-05-09T15:33:19.909Z,96593.00
2024-05-09T15:35:50.037Z,96587.59
2024-05-09T15:38:18.639Z,96581.44
2024-05-09T15:40:49.039Z,96592.97
2024-05-09T15:43:19.299Z,96589.34
2024-05-09T15:45:49.548Z,96593.53
2024-05-09T15:48:17.096Z,96587.53
2024-05-09T15:50:47.490Z,96585.16
2024-05-09T15:53:15.174Z,96594.03
2024-05-09T15:55:45.760Z,96585.75
2024-05-09T15:58:13.394Z,96587.22
2024-05-09T16:00:48.747Z,96589.16
2024-05-09T16:03:18.062Z,96589.75
2024-05-09T16:05:48.742Z,96579.69
2024-05-09T16:08:16.766Z,96584.16
2024-05-09T16:10:48.277Z,96576.56
2024-05-09T16:13:20.254Z,96579.47
2024-05-09T16:15:54.810Z,96581.69
2024-05-09T16:18:23.137Z,96578.50
2024-05-09T16:20:59.977Z,96576.44
2024-05-09T16:23:27.734Z,96578.81
2024-05-09T16:25:57.981Z,96577.81
2024-05-09T16:28:27.013Z,96571.91
2024-05-09T16:31:01.645Z,96577.56
2024-05-09T16:33:29.586Z,96584.13
2024-05-09T16:36:01.064Z,96573.22
2024-05-09T16:38:29.222Z,96574.53
2024-05-09T16:41:01.325Z,96576.56
2024-05-09T16:43:30.996Z,96566.78
2024-05-09T16:46:06.628Z,96566.88
2024-05-09T16:48:34.586Z,96566.63
2024-05-09T16:51:05.409Z,96576.25
2024-05-09T16:53:33.335Z,96571.59
2024-05-09T16:56:04.056Z,96574.88
2024-05-09T16:58:32.565Z,96582.00
2024-05-09T17:01:05.985Z,96578.84
2024-05-09T17:03:34.560Z,96580.41
2024-05-09T17:06:05.871Z,96572.63
2024-05-09T17:08:33.332Z,96575.78
2024-05-09T17:11:03.589Z,96576.50
2024-05-09T17:13:34.091Z,96577.78
2024-05-09T17:16:07.679Z,96574.38
2024-05-09T17:18:38.299Z,96572.50
2024-05-09T17:21:09.207Z,96577.75
2024-05-09T17:23:36.706Z,96573.78
2024-05-09T17:26:06.885Z,96565.25
2024-05-09T17:28:34.434Z,96573.72
2024-05-09T17:31:07.579Z,96576.28
2024-05-09T17:33:35.744Z,96567.78
2024-05-09T17:36:06.136Z,96576.94
2024-05-09T17:38:33.579Z,96575.38
2024-05-09T17:41:03.775Z,96574.66
2024-05-09T17:43:31.434Z,96569.88
2024-05-09T17:46:02.236Z,96578.81
2024-05-09T17:48:32.535Z,96569.50
2024-05-09T17:51:03.003Z,96574.97
2024-05-09T17:53:30.432Z,96578.53
2024-05-09T17:56:01.625Z,96574.00
2024-05-09T17:58:29.763Z,96579.19
2024-05-09T18:01:00.101Z,96577.34
2024-05-09T18:03:27.858Z,96578.22
2024-05-09T18:06:00.753Z,96568.88
2024-05-09T18:08:28.254Z,96567.84
2024-05-09T18:10:58.729Z,96565.44
2024-05-09T18:13:29.159Z,96562.81
2024-05-09T18:15:59.325Z,96570.91
2024-05-09T18:18:26.999Z,96566.91
2024-05-09T18:20:57.181Z,96565.84
2024-05-09T18:23:27.352Z,96573.09
2024-05-09T18:25:57.886Z,96570.13
2024-05-09T18:28:25.660Z,96570.94
2024-05-09T18:30:55.931Z,96574.69
2024-05-09T18:33:24.510Z,96569.53
2024-05-09T18:35:55.068Z,96568.44
2024-05-09T18:38:25.697Z,96571.13
2024-05-09T18:40:58.567Z,96573.50
2024-05-09T18:43:31.325Z,96575.63
2024-05-09T18:46:08.578Z,96573.44
2024-05-09T18:48:36.187Z,96573.13
2024-05-09T18:51:06.581Z,96578.44
2024-05-09T18:53:34.053Z,96578.16
2024-05-09T18:56:07.249Z,96580.22
2024-05-09T18:58:34.651Z,96579.34
2024-05-09T19:01:05.018Z,96581.72
2024-05-09T19:03:32.948Z,96587.56
2024-05-09T19:06:03.442Z,96581.28
2024-05-09T19:08:31.372Z,96593.00
2024-05-09T19:11:02.141Z,96596.41
2024-05-09T19:13:32.611Z,96597.94
2024-05-09T19:16:03.415Z,96598.91
2024-05-09T19:18:31.318Z,96596.69
2024-05-09T19:21:01.723Z,96612.13
2024-05-09T19:23:32.495Z,96606.72
2024-05-09T19:26:03.234Z,96607.41
2024-05-09T19:28:33.328Z,96614.81
2024-05-09T19:31:03.615Z,96608.28
2024-05-09T19:33:32.213Z,96611.66
2024-05-09T19:36:02.956Z,96606.75
2024-05-09T19:38:30.382Z,96610.19
2024-05-09T19:41:00.694Z,96607.94
2024-05-09T19:43:28.695Z,96616.41
2024-05-09T19:46:02.047Z,96616.09
2024-05-09T19:48:29.710Z,96610.66
2024-05-09T19:51:00.343Z,96617.03
2024-05-09T19:53:27.759Z,96613.13
2024-05-09T19:55:58.016Z,96611.38
2024-05-09T19:58:25.794Z,96615.28
2024-05-09T20:00:56.148Z,96621.03
2024-05-09T20:03:26.378Z,96619.09
2024-05-09T20:05:56.552Z,96614.41
2024-05-09T20:08:24.031Z,96614.34
2024-05-09T20:10:54.174Z,96619.59
2024-05-09T20:13:21.843Z,96615.22
2024-05-09T20:15:52.260Z,96616.41
2024-05-09T20:18:20.194Z,96618.78
2024-05-09T20:20:54.080Z,96614.66
2024-05-09T20:23:21.829Z,96620.13
2024-05-09T20:25:51.913Z,96612.63
2024-05-09T20:28:19.451Z,96610.09
2024-05-09T20:30:49.723Z,96624.19
2024-05-09T20:33:17.531Z,96619.53
2024-05-09T20:35:47.700Z,96613.09
2024-05-09T20:38:17.791Z,96614.53
2024-05-09T20:40:48.134Z,96622.19
2024-05-09T20:43:15.794Z,96610.63
2024-05-09T20:45:46.322Z,96613.41
2024-05-09T20:48:14.076Z,96606.38
2024-05-09T20:50:44.495Z,96602.00
2024-05-09T20:53:13.419Z,96607.00
2024-05-09T20:55:47.407Z,96608.75
2024-05-09T20:58:15.045Z,96606.00
2024-05-09T21:00:46.660Z,96605.41
2024-05-09T21:03:15.954Z,96602.66
2024-05-09T21:05:47.787Z,96604.97
2024-05-09T21:08:15.822Z,96607.56
2024-05-09T21:10:48.732Z,96602.91
2024-05-09T21:13:16.745Z,96605.22
2024-05-09T21:15:47.047Z,96610.25
2024-05-09T21:18:14.679Z,96606.16
2024-05-09T21:20:44.882Z,96605.03
2024-05-09T21:23:12.311Z,96600.72
2024-05-09T21:25:43.021Z,96599.22
2024-05-09T21:28:14.917Z,96596.44
2024-05-09T21:30:45.174Z,96600.63
2024-05-09T21:33:14.231Z,96600.06
2024-05-09T21:35:45.523Z,96587.78
2024-05-09T21:38:14.234Z,96591.72
2024-05-09T21:40:45.668Z,96599.59
2024-05-09T21:43:16.034Z,96599.50
2024-05-09T21:45:46.212Z,96599.13
2024-05-09T21:48:13.896Z,96595.91
2024-05-09T21:50:44.608Z,96592.91
2024-05-09T21:53:13.210Z,96592.53
2024-05-09T21:55:44.360Z,96589.31
2024-05-09T21:58:12.270Z,96584.69
2024-05-09T22:00:46.577Z,96590.47
2024-05-09T22:03:14.641Z,96592.56
2024-05-09T22:05:45.360Z,96586.66
2024-05-09T22:08:13.562Z,96586.06
2024-05-09T22:10:43.873Z,96584.44
2024-05-09T22:13:11.492Z,96583.03
2024-05-09T22:15:44.813Z,96584.09
2024-05-09T22:18:12.543Z,96580.88
2024-05-09T22:20:45.805Z,96585.38
2024-05-09T22:23:14.839Z,96582.94
2024-05-09T22:25:45.232Z,96581.31
2024-05-09T22:28:14.147Z,96584.22
2024-05-09T22:30:47.706Z,96585.47
2024-05-09T22:33:15.997Z,96579.00
2024-05-09T22:35:47.642Z,96578.41
2024-05-09T22:38:15.222Z,96581.06
2024-05-09T22:40:48.666Z,96577.38
2024-05-09T22:43:22.180Z,96574.13
2024-05-09T22:45:58.000Z,96577.03
2024-05-09T22:48:26.009Z,96576.91
2024-05-09T22:50:56.319Z,96581.66
2024-05-09T22:53:24.942Z,96580.84
2024-05-09T22:55:55.361Z,96579.22
2024-05-09T22:58:23.395Z,96582.09
2024-05-09T23:00:54.055Z,96576.22
2024-05-09T23:03:24.840Z,96583.63
2024-05-09T23:05:55.123Z,96578.53
2024-05-09T23:08:22.527Z,96578.16
2024-05-09T23:10:52.731Z,96575.16
2024-05-09T23:13:20.450Z,96572.13
2024-05-09T23:15:51.278Z,96570.72
2024-05-09T23:18:19.011Z,96569.59
2024-05-09T23:20:52.089Z,96564.72
2024-05-09T23:23:19.732Z,96563.31
2024-05-09T23:25:49.936Z,96559.50
2024-05-09T23:28:17.552Z,96559.13
2024-05-09T23:30:47.645Z,96559.13
2024-05-09T23:33:15.365Z,96562.03
2024-05-09T23:35:45.698Z,96560.66
2024-05-09T23:38:15.886Z,96559.84
2024-05-09T23:40:46.121Z,96555.56
2024-05-09T23:43:14.332Z,96556.81
2024-05-09T23:45:44.673Z,96560.72
2024-05-09T23:48:12.298Z,96551.13
2024-05-09T23:50:42.617Z,96554.00
2024-05-09T23:53:10.944Z,96550.78
2024-05-09T23:55:44.218Z,96556.91
2024-05-09T23:58:12.207Z,96551.59
